createdAt,value
2019-05-30T00:00:58.135Z,97371.97
2019-05-30T00:03:25.272Z,97371.73
2019-05-30T00:05:52.467Z,97371.53
2019-05-30T00:08:19.399Z,97376.42
2019-05-30T00:10:46.317Z,97374.27
2019-05-30T00:13:13.352Z,97374.27
2019-05-30T00:15:40.380Z,97371.30
2019-05-30T00:18:07.632Z,97377.89
2019-05-30T00:20:34.637Z,97357.20
2019-05-30T00:23:01.976Z,97383.58
2019-05-30T00:25:28.983Z,97381.09
2019-05-30T00:27:57.027Z,97381.09
2019-05-30T00:30:24.897Z,97375.96
2019-05-30T00:32:52.300Z,97375.73
2019-05-30T00:35:19.304Z,97381.09
2019-05-30T00:37:46.119Z,97374.03
2019-05-30T00:40:14.135Z,97377.33
2019-05-30T00:42:41.643Z,97374.03
2019-05-30T00:45:20.492Z,97374.83
2019-05-30T00:47:39.641Z,97380.85
2019-05-30T00:50:07.093Z,97380.29
2019-05-30T00:52:34.400Z,97375.16
2019-05-30T00:55:02.976Z,97377.09
2019-05-30T00:57:30.652Z,97383.12
2019-05-30T00:59:58.745Z,97379.36
2019-05-30T01:02:26.463Z,97377.77
2019-05-30T01:04:53.791Z,97385.14
2019-05-30T01:07:20.903Z,97390.84
2019-05-30T01:09:48.252Z,97363.33
2019-05-30T01:12:15.542Z,97386.51
2019-05-30T01:14:42.782Z,97383.78
2019-05-30T01:17:09.996Z,97373.10
2019-05-30T01:19:37.540Z,97376.96
2019-05-30T01:22:05.542Z,97354.11
2019-05-30T01:24:33.636Z,97354.11
2019-05-30T01:27:01.353Z,97372.88
2019-05-30T01:29:28.791Z,97370.94
2019-05-30T01:31:57.343Z,97381.63
2019-05-30T01:34:24.855Z,97354.21
2019-05-30T01:36:52.063Z,97354.21
2019-05-30T01:39:19.309Z,97374.70
2019-05-30T01:41:46.662Z,97371.17
2019-05-30T01:44:14.108Z,97379.36
2019-05-30T01:46:41.111Z,97373.67
2019-05-30T01:49:08.703Z,97371.28
2019-05-30T01:51:36.167Z,97376.96
2019-05-30T01:54:04.530Z,97376.96
2019-05-30T01:56:31.631Z,97375.36
2019-05-30T01:58:58.743Z,97378.79
2019-05-30T02:01:25.973Z,97381.75
2019-05-30T02:03:53.202Z,97381.75
2019-05-30T02:06:20.204Z,97382.52
2019-05-30T02:08:47.327Z,97384.24
2019-05-30T02:11:15.058Z,97382.08
2019-05-30T02:13:42.004Z,97384.81
2019-05-30T02:16:09.935Z,97368.88
2019-05-30T02:18:37.229Z,97385.05
2019-05-30T02:21:05.766Z,97386.97
2019-05-30T02:23:33.163Z,97388.90
2019-05-30T02:26:00.375Z,97388.10
2019-05-30T02:28:27.621Z,97375.12
2019-05-30T02:30:54.828Z,97385.38
2019-05-30T02:33:22.062Z,97392.42
2019-05-30T02:35:49.156Z,97370.70
2019-05-30T02:38:16.500Z,97399.58
2019-05-30T02:40:43.592Z,97399.58
2019-05-30T02:43:12.149Z,97397.98
2019-05-30T02:45:40.292Z,97399.67
2019-05-30T02:48:09.665Z,97403.89
2019-05-30T02:50:37.260Z,97406.95
2019-05-30T02:53:05.981Z,97408.98
2019-05-30T02:55:33.507Z,97406.02
2019-05-30T02:58:01.284Z,97407.15
2019-05-30T03:00:34.772Z,97406.71
2019-05-30T03:03:03.845Z,97407.05
2019-05-30T03:05:31.721Z,97410.00
2019-05-30T03:07:59.530Z,97408.41
2019-05-30T03:10:26.953Z,97410.10
2019-05-30T03:12:54.348Z,97406.11
2019-05-30T03:15:22.164Z,97413.28
2019-05-30T03:17:49.347Z,97410.09
2019-05-30T03:20:22.886Z,97409.06
2019-05-30T03:22:46.426Z,97409.86
2019-05-30T03:25:16.150Z,97412.02
2019-05-30T03:27:43.095Z,97412.25
2019-05-30T03:30:23.684Z,97415.55
2019-05-30T03:35:22.077Z,97415.55
2019-05-30T03:37:38.954Z,97411.69
2019-05-30T03:40:07.236Z,97408.39
2019-05-30T03:42:34.329Z,97393.91
2019-05-30T03:45:10.765Z,97393.91
2019-05-30T03:47:41.003Z,97408.27
2019-05-30T03:50:12.566Z,97424.53
2019-05-30T03:52:40.968Z,97429.19
2019-05-30T03:55:10.067Z,97430.55
2019-05-30T03:57:44.025Z,97430.55
2019-05-30T04:00:31.623Z,97440.33
2019-05-30T04:03:16.173Z,97444.66
2019-05-30T04:05:50.889Z,97444.66
2019-05-30T04:08:19.770Z,97447.05
2019-05-30T04:10:51.926Z,97419.82
2019-05-30T04:13:38.897Z,97431.44
2019-05-30T04:16:06.907Z,97457.03
2019-05-30T04:18:34.328Z,97459.88
2019-05-30T04:21:01.696Z,97463.73
2019-05-30T04:23:28.889Z,97463.73
2019-05-30T04:26:00.110Z,97461.34
2019-05-30T04:28:24.886Z,97463.03
2019-05-30T04:30:52.052Z,97467.92
2019-05-30T04:33:31.611Z,97467.92
2019-05-30T04:35:48.013Z,97461.44
2019-05-30T04:38:16.911Z,97467.12
2019-05-30T04:40:44.150Z,97467.92
2019-05-30T04:43:11.292Z,97480.09
2019-05-30T04:45:38.300Z,97480.09
2019-05-30T04:48:05.668Z,97483.06
2019-05-30T04:50:32.770Z,97483.73
2019-05-30T04:52:59.671Z,97486.70
2019-05-30T04:55:26.589Z,97489.89
2019-05-30T04:57:54.045Z,97490.12
2019-05-30T05:00:21.697Z,97492.53
2019-05-30T05:02:48.944Z,97466.00
2019-05-30T05:05:23.833Z,97480.77
2019-05-30T05:07:45.456Z,97493.20
2019-05-30T05:10:14.003Z,97492.63
2019-05-30T05:12:41.253Z,97492.63
2019-05-30T05:15:09.577Z,97498.09
2019-05-30T05:17:36.505Z,97504.58
2019-05-30T05:20:07.330Z,97498.79
2019-05-30T05:22:34.360Z,97505.25
2019-05-30T05:25:01.603Z,97506.52
2019-05-30T05:27:29.299Z,97505.62
2019-05-30T05:29:56.556Z,97505.62
2019-05-30T05:32:24.630Z,97506.89
2019-05-30T05:34:52.200Z,97511.78
2019-05-30T05:37:21.144Z,97521.77
2019-05-30T05:39:48.322Z,97511.09
2019-05-30T05:42:16.074Z,97517.02
2019-05-30T05:44:44.886Z,97522.02
2019-05-30T05:47:12.712Z,97524.09
2019-05-30T05:49:40.186Z,97490.48
2019-05-30T05:52:07.188Z,97522.40
2019-05-30T05:54:34.444Z,97522.63
2019-05-30T05:57:01.539Z,97526.50
2019-05-30T05:59:29.288Z,97527.53
2019-05-30T06:01:56.687Z,97532.33
2019-05-30T06:04:25.271Z,97532.20
2019-05-30T06:06:52.468Z,97535.30
2019-05-30T06:09:20.791Z,97541.20
2019-05-30T06:11:49.129Z,97534.61
2019-05-30T06:14:17.704Z,97535.64
2019-05-30T06:16:44.800Z,97539.41
2019-05-30T06:19:11.831Z,97543.27
2019-05-30T06:21:53.114Z,97545.76
2019-05-30T06:24:07.890Z,97548.25
2019-05-30T06:26:34.892Z,97548.02
2019-05-30T06:29:01.820Z,97549.18
2019-05-30T06:31:28.774Z,97553.48
2019-05-30T06:33:55.778Z,97555.20
2019-05-30T06:36:23.051Z,97550.55
2019-05-30T06:38:50.479Z,97553.48
2019-05-30T06:41:17.578Z,97560.77
2019-05-30T06:43:44.560Z,97558.05
2019-05-30T06:46:11.565Z,97555.88
2019-05-30T06:48:38.580Z,97556.91
2019-05-30T06:51:05.615Z,97557.48
2019-05-30T06:53:32.679Z,97560.44
2019-05-30T06:55:59.696Z,97567.27
2019-05-30T06:58:42.234Z,97561.80
2019-05-30T07:00:55.487Z,97560.67
2019-05-30T07:03:22.627Z,97567.97
2019-05-30T07:05:50.301Z,97567.97
2019-05-30T07:08:17.807Z,97564.88
2019-05-30T07:10:44.911Z,97565.34
2019-05-30T07:13:12.143Z,97566.27
2019-05-30T07:15:39.346Z,97573.77
2019-05-30T07:18:06.419Z,97571.84
2019-05-30T07:20:33.890Z,97568.81
2019-05-30T07:23:01.156Z,97572.91
2019-05-30T07:25:29.799Z,97564.61
2019-05-30T07:27:56.964Z,97576.77
2019-05-30T07:30:25.746Z,97577.94
2019-05-30T07:32:53.083Z,97579.30
2019-05-30T07:35:20.495Z,97580.30
2019-05-30T07:37:47.659Z,97583.83
2019-05-30T07:40:19.407Z,97590.66
2019-05-30T07:42:44.402Z,97586.89
2019-05-30T07:45:13.483Z,97589.98
2019-05-30T07:47:40.631Z,97589.98
2019-05-30T07:50:08.318Z,97598.84
2019-05-30T07:52:35.245Z,97597.22
2019-05-30T07:55:07.561Z,97600.28
2019-05-30T07:57:34.668Z,97600.41
2019-05-30T08:00:08.533Z,97600.73
2019-05-30T08:02:35.824Z,97605.63
2019-05-30T08:05:22.741Z,97606.53
2019-05-30T08:07:37.425Z,97607.09
2019-05-30T08:10:07.362Z,97612.55
2019-05-30T08:12:34.479Z,97614.25
2019-05-30T08:15:01.617Z,97615.17
2019-05-30T08:17:29.495Z,97610.38
2019-05-30T08:19:56.662Z,97621.30
2019-05-30T08:22:23.685Z,97620.83
2019-05-30T08:24:50.726Z,97624.02
2019-05-30T08:27:17.762Z,97627.89
2019-05-30T08:29:44.973Z,97637.20
2019-05-30T08:32:12.088Z,97629.70
2019-05-30T08:34:39.239Z,97635.16
2019-05-30T08:37:06.531Z,97642.42
2019-05-30T08:39:33.665Z,97648.13
2019-05-30T08:42:00.908Z,97644.27
2019-05-30T08:44:27.854Z,97651.56
2019-05-30T08:46:54.988Z,97653.25
2019-05-30T08:49:22.098Z,97651.56
2019-05-30T08:51:49.001Z,97655.33
2019-05-30T08:54:16.144Z,97650.09
2019-05-30T08:56:43.300Z,97659.06
2019-05-30T08:59:10.447Z,97658.85
2019-05-30T09:01:37.770Z,97656.78
2019-05-30T09:04:04.963Z,97655.27
2019-05-30T09:06:31.969Z,97660.86
2019-05-30T09:08:59.088Z,97663.44
2019-05-30T09:11:26.114Z,97664.70
2019-05-30T09:13:53.247Z,97663.75
2019-05-30T09:16:20.324Z,97666.01
2019-05-30T09:18:47.564Z,97664.44
2019-05-30T09:21:14.866Z,97669.66
2019-05-30T09:23:42.265Z,97672.16
2019-05-30T09:26:10.019Z,97666.93
2019-05-30T09:28:37.744Z,97671.47
2019-05-30T09:31:06.323Z,97672.41
2019-05-30T09:33:33.779Z,97668.91
2019-05-30T09:36:12.547Z,97664.39
2019-05-30T09:38:29.857Z,97666.34
2019-05-30T09:40:57.001Z,97668.61
2019-05-30T09:43:24.051Z,97669.41
2019-05-30T09:45:51.324Z,97667.95
2019-05-30T09:48:18.331Z,97665.69
2019-05-30T09:50:46.782Z,97669.66
2019-05-30T09:53:14.098Z,97672.23
2019-05-30T09:55:42.899Z,97676.81
2019-05-30T09:58:10.304Z,97678.99
2019-05-30T10:00:37.863Z,97686.77
2019-05-30T10:03:04.970Z,97684.28
2019-05-30T10:05:32.204Z,97685.79
2019-05-30T10:07:59.464Z,97690.92
2019-05-30T10:10:26.894Z,97691.50
2019-05-30T10:12:53.788Z,97699.37
2019-05-30T10:15:21.465Z,97698.47
2019-05-30T10:17:51.798Z,97706.80
2019-05-30T10:20:18.438Z,97705.20
2019-05-30T10:22:48.277Z,97709.20
2019-05-30T10:25:14.795Z,97712.37
2019-05-30T10:27:42.015Z,97712.23
2019-05-30T10:30:10.219Z,97713.27
2019-05-30T10:32:37.302Z,97709.40
2019-05-30T10:35:05.455Z,97711.66
2019-05-30T10:37:32.408Z,97710.63
2019-05-30T10:39:59.466Z,97712.33
2019-05-30T10:42:26.563Z,97711.77
2019-05-30T10:44:54.621Z,97712.56
2019-05-30T10:47:21.642Z,97708.23
2019-05-30T10:49:49.779Z,97709.16
2019-05-30T10:52:16.896Z,97709.03
2019-05-30T10:54:45.017Z,97711.42
2019-05-30T10:57:13.374Z,97710.48
2019-05-30T10:59:40.365Z,97713.88
2019-05-30T11:02:07.703Z,97708.88
2019-05-30T11:04:34.891Z,97705.45
2019-05-30T11:07:19.849Z,97712.07
2019-05-30T11:10:10.132Z,97706.94
2019-05-30T11:12:37.422Z,97713.53
2019-05-30T11:15:06.521Z,97713.30
2019-05-30T11:17:33.571Z,97717.73
2019-05-30T11:20:00.571Z,97711.36
2019-05-30T11:22:27.535Z,97714.28
2019-05-30T11:24:54.695Z,97714.73
2019-05-30T11:27:21.633Z,97717.89
2019-05-30T11:29:48.750Z,97712.65
2019-05-30T11:32:15.863Z,97718.34
2019-05-30T11:34:42.808Z,97716.51
2019-05-30T11:37:18.497Z,97714.23
2019-05-30T11:39:38.742Z,97717.29
2019-05-30T11:42:05.795Z,97712.16
2019-05-30T11:44:33.122Z,97715.19
2019-05-30T11:47:00.154Z,97712.91
2019-05-30T11:49:27.159Z,97715.50
2019-05-30T11:51:54.358Z,97713.66
2019-05-30T11:54:21.700Z,97715.62
2019-05-30T11:56:49.997Z,97713.78
2019-05-30T11:59:17.770Z,97714.91
2019-05-30T12:01:44.687Z,97716.04
2019-05-30T12:04:12.025Z,97723.42
2019-05-30T12:06:39.219Z,97718.98
2019-05-30T12:09:07.074Z,97724.44
2019-05-30T12:11:34.447Z,97722.69
2019-05-30T12:14:01.567Z,97725.95
2019-05-30T12:16:29.387Z,97728.22
2019-05-30T12:18:58.066Z,97722.40
2019-05-30T12:21:25.481Z,97725.78
2019-05-30T12:23:54.274Z,97727.59
2019-05-30T12:26:21.757Z,97721.30
2019-05-30T12:28:48.859Z,97730.14
2019-05-30T12:31:15.895Z,97727.28
2019-05-30T12:33:43.370Z,97717.03
2019-05-30T12:36:10.922Z,97725.62
2019-05-30T12:38:38.079Z,97728.78
2019-05-30T12:41:05.297Z,97733.28
2019-05-30T12:43:33.436Z,97731.48
2019-05-30T12:46:01.251Z,97736.45
2019-05-30T12:48:28.598Z,97736.21
2019-05-30T12:50:55.583Z,97727.80
2019-05-30T12:53:22.752Z,97739.50
2019-05-30T12:55:49.860Z,97737.02
2019-05-30T12:58:17.206Z,97736.69
2019-05-30T13:00:44.527Z,97740.55
2019-05-30T13:03:11.692Z,97709.47
2019-05-30T13:05:38.788Z,97735.17
2019-05-30T13:08:17.549Z,97740.50
2019-05-30T13:10:34.843Z,97738.98
2019-05-30T13:13:04.047Z,97738.42
2019-05-30T13:15:31.488Z,97742.52
2019-05-30T13:17:58.856Z,97737.86
2019-05-30T13:20:26.283Z,97738.66
2019-05-30T13:22:53.216Z,97733.20
2019-05-30T13:25:21.326Z,97735.94
2019-05-30T13:27:48.458Z,97743.31
2019-05-30T13:30:16.201Z,97745.00
2019-05-30T13:32:43.101Z,97740.78
2019-05-30T13:35:11.389Z,97740.82
2019-05-30T13:37:38.411Z,97739.41
2019-05-30T13:40:23.590Z,97742.78
2019-05-30T13:42:36.097Z,97741.50
2019-05-30T13:45:06.641Z,97750.91
2019-05-30T13:47:33.647Z,97745.41
2019-05-30T13:50:00.741Z,97748.29
2019-05-30T13:52:28.111Z,97743.59
2019-05-30T13:54:55.144Z,97739.09
2019-05-30T13:57:22.255Z,97743.54
2019-05-30T13:59:49.321Z,97748.19
2019-05-30T14:02:16.640Z,97740.65
2019-05-30T14:04:43.495Z,97740.41
2019-05-30T14:07:10.614Z,97743.80
2019-05-30T14:09:37.995Z,97741.79
2019-05-30T14:12:05.072Z,97728.98
2019-05-30T14:14:32.337Z,97728.98
2019-05-30T14:16:59.369Z,97745.86
2019-05-30T14:19:27.799Z,97745.73
2019-05-30T14:21:54.759Z,97727.98
2019-05-30T14:24:21.910Z,97729.97
2019-05-30T14:26:48.986Z,97729.97
2019-05-30T14:29:16.154Z,97745.00
2019-05-30T14:31:43.214Z,97747.16
2019-05-30T14:34:10.268Z,97747.16
2019-05-30T14:36:37.481Z,97746.68
2019-05-30T14:39:06.840Z,97751.19
2019-05-30T14:41:34.263Z,97753.18
2019-05-30T14:44:01.488Z,97756.32
2019-05-30T14:46:28.652Z,97762.08
2019-05-30T14:48:56.021Z,97762.41
2019-05-30T14:51:23.393Z,97762.41
2019-05-30T14:53:50.593Z,97764.56
2019-05-30T14:56:17.950Z,97758.98
2019-05-30T14:58:44.858Z,97758.98
2019-05-30T15:01:13.267Z,97764.25
2019-05-30T15:03:40.741Z,97738.33
2019-05-30T15:06:09.180Z,97738.33
2019-05-30T15:08:37.095Z,97757.45
2019-05-30T15:11:05.350Z,97757.13
2019-05-30T15:13:32.547Z,97757.13
2019-05-30T15:15:59.579Z,97758.98
2019-05-30T15:18:26.802Z,97753.75
2019-05-30T15:20:53.891Z,97758.88
2019-05-30T15:23:20.788Z,97752.63
2019-05-30T15:25:48.013Z,97749.66
2019-05-30T15:28:16.119Z,97746.73
2019-05-30T15:30:43.524Z,97750.57
2019-05-30T15:33:10.631Z,97750.72
2019-05-30T15:35:37.784Z,97752.42
2019-05-30T15:38:04.981Z,97751.69
2019-05-30T15:40:32.359Z,97747.36
2019-05-30T15:42:59.376Z,97743.35
2019-05-30T15:45:26.704Z,97750.82
2019-05-30T15:47:53.655Z,97747.61
2019-05-30T15:50:20.981Z,97739.69
2019-05-30T15:52:47.882Z,97735.13
2019-05-30T15:55:17.313Z,97739.45
2019-05-30T15:57:45.066Z,97734.00
2019-05-30T16:00:14.079Z,97737.84
2019-05-30T16:02:41.671Z,97736.23
2019-05-30T16:05:12.523Z,97735.53
2019-05-30T16:07:39.989Z,97736.90
2019-05-30T16:10:07.588Z,97730.97
2019-05-30T16:12:34.805Z,97735.61
2019-05-30T16:15:02.824Z,97731.52
2019-05-30T16:17:29.969Z,97727.13
2019-05-30T16:19:56.876Z,97727.69
2019-05-30T16:22:24.031Z,97729.85
2019-05-30T16:24:51.318Z,97722.97
2019-05-30T16:27:18.322Z,97723.75
2019-05-30T16:29:45.337Z,97730.34
2019-05-30T16:32:13.687Z,97730.66
2019-05-30T16:34:40.986Z,97728.48
2019-05-30T16:37:08.141Z,97726.64
2019-05-30T16:39:35.233Z,97729.99
2019-05-30T16:42:02.508Z,97726.57
2019-05-30T16:44:29.578Z,97724.41
2019-05-30T16:46:56.644Z,97728.00
2019-05-30T16:49:23.655Z,97724.72
2019-05-30T16:51:51.109Z,97725.84
2019-05-30T16:54:19.248Z,97717.67
2019-05-30T16:56:46.547Z,97716.07
2019-05-30T16:59:14.507Z,97713.70
2019-05-30T17:01:41.655Z,97716.41
2019-05-30T17:04:08.758Z,97721.52
2019-05-30T17:06:35.699Z,97726.08
2019-05-30T17:09:04.794Z,97722.73
2019-05-30T17:11:31.735Z,97723.53
2019-05-30T17:13:58.774Z,97725.77
2019-05-30T17:16:26.264Z,97726.33
2019-05-30T17:18:53.615Z,97724.48
2019-05-30T17:21:21.069Z,97724.02
2019-05-30T17:23:48.381Z,97725.59
2019-05-30T17:26:15.522Z,97725.45
2019-05-30T17:28:43.436Z,97724.41
2019-05-30T17:31:11.612Z,97728.90
2019-05-30T17:33:39.584Z,97735.11
2019-05-30T17:36:06.800Z,97737.27
2019-05-30T17:38:33.827Z,97737.52
2019-05-30T17:41:00.895Z,97733.19
2019-05-30T17:43:29.180Z,97738.48
2019-05-30T17:45:56.839Z,97740.66
2019-05-30T17:48:23.857Z,97741.52
2019-05-30T17:50:50.924Z,97734.72
2019-05-30T17:53:18.156Z,97736.08
2019-05-30T17:55:45.123Z,97741.52
2019-05-30T17:58:12.301Z,97740.72
2019-05-30T18:00:39.513Z,97746.81
2019-05-30T18:03:06.568Z,97743.36
2019-05-30T18:05:36.976Z,97747.44
2019-05-30T18:08:02.980Z,97744.47
2019-05-30T18:10:31.214Z,97743.19
2019-05-30T18:12:58.324Z,97752.95
2019-05-30T18:15:28.940Z,97753.19
2019-05-30T18:17:55.338Z,97752.08
2019-05-30T18:20:23.177Z,97754.48
2019-05-30T18:22:50.471Z,97753.62
2019-05-30T18:25:18.193Z,97749.19
2019-05-30T18:27:45.284Z,97754.31
2019-05-30T18:30:13.281Z,97752.47
2019-05-30T18:32:40.402Z,97750.31
2019-05-30T18:35:07.730Z,97758.25
2019-05-30T18:37:36.533Z,97757.11
2019-05-30T18:40:06.988Z,97759.13
2019-05-30T18:42:33.917Z,97754.80
2019-05-30T18:45:01.061Z,97758.88
2019-05-30T18:47:29.091Z,97751.83
2019-05-30T18:49:56.586Z,97754.55
2019-05-30T18:52:24.151Z,97758.08
2019-05-30T18:54:51.280Z,97758.01
2019-05-30T18:57:18.500Z,97763.69
2019-05-30T18:59:45.555Z,97759.99
2019-05-30T19:02:12.558Z,97767.34
2019-05-30T19:04:39.422Z,97768.22
2019-05-30T19:07:06.632Z,97770.48
2019-05-30T19:09:33.854Z,97777.59
2019-05-30T19:12:01.672Z,97775.42
2019-05-30T19:14:32.108Z,97774.06
2019-05-30T19:16:58.075Z,97786.23
2019-05-30T19:19:25.833Z,97793.44
2019-05-30T19:21:52.989Z,97786.08
2019-05-30T19:24:19.929Z,97787.19
2019-05-30T19:26:46.931Z,97788.30
2019-05-30T19:29:14.214Z,97792.14
2019-05-30T19:31:41.371Z,97786.95
2019-05-30T19:34:08.460Z,97789.66
2019-05-30T19:36:35.456Z,97788.30
2019-05-30T19:39:05.003Z,97789.91
2019-05-30T19:41:46.096Z,97782.00
2019-05-30T19:44:01.770Z,97782.48
2019-05-30T19:46:29.783Z,97787.03
2019-05-30T19:48:57.048Z,97792.47
2019-05-30T19:51:24.587Z,97788.39
2019-05-30T19:53:51.788Z,97787.03
2019-05-30T19:56:18.834Z,97785.91
2019-05-30T19:58:45.847Z,97786.96
2019-05-30T20:01:12.890Z,97789.13
2019-05-30T20:03:46.583Z,97796.73
2019-05-30T20:06:09.237Z,97799.77
2019-05-30T20:08:53.331Z,97801.98
2019-05-30T20:11:05.358Z,97798.50
2019-05-30T20:13:33.057Z,97797.69
2019-05-30T20:16:00.424Z,97795.19
2019-05-30T20:18:27.566Z,97795.19
2019-05-30T20:20:57.804Z,97794.63
2019-05-30T20:23:24.007Z,97795.19
2019-05-30T20:25:51.105Z,97794.41
2019-05-30T20:28:18.219Z,97800.63
2019-05-30T20:30:46.482Z,97799.27
2019-05-30T20:33:13.444Z,97798.81
2019-05-30T20:35:41.809Z,97802.08
2019-05-30T20:38:09.407Z,97799.37
2019-05-30T20:40:36.944Z,97797.20
2019-05-30T20:43:04.140Z,97797.20
2019-05-30T20:45:31.616Z,97798.00
2019-05-30T20:47:58.511Z,97801.53
2019-05-30T20:50:25.967Z,97803.13
2019-05-30T20:52:53.079Z,97812.87
2019-05-30T20:55:20.561Z,97808.02
2019-05-30T20:57:47.972Z,97809.75
2019-05-30T21:00:17.610Z,97808.06
2019-05-30T21:02:45.013Z,97806.52
2019-05-30T21:05:12.659Z,97806.61
2019-05-30T21:07:41.904Z,97810.45
2019-05-30T21:10:10.335Z,97811.06
2019-05-30T21:12:41.861Z,97814.59
2019-05-30T21:15:09.989Z,97805.01
2019-05-30T21:17:37.781Z,97806.30
2019-05-30T21:20:23.094Z,97808.86
2019-05-30T21:23:07.922Z,97805.59
2019-05-30T21:25:53.021Z,97811.03
2019-05-30T21:28:19.108Z,97800.22
2019-05-30T21:30:47.375Z,97803.48
2019-05-30T21:33:14.357Z,97796.20
2019-05-30T21:35:43.966Z,97806.52
2019-05-30T21:38:10.735Z,97805.16
2019-05-30T21:40:56.937Z,97805.96
2019-05-30T21:43:42.386Z,97809.17
2019-05-30T21:46:28.671Z,97807.81
2019-05-30T21:49:14.796Z,97805.72
2019-05-30T21:51:59.795Z,97809.80
2019-05-30T21:54:26.622Z,97807.08
2019-05-30T21:56:52.867Z,97811.49
2019-05-30T21:59:21.534Z,97810.13
2019-05-30T22:01:56.824Z,97805.25
2019-05-30T22:04:36.557Z,97799.56
2019-05-30T22:07:03.368Z,97797.65
2019-05-30T22:09:32.640Z,97796.53
2019-05-30T22:12:17.461Z,97810.59
2019-05-30T22:14:46.341Z,97811.95
2019-05-30T22:17:17.827Z,97809.80
2019-05-30T22:19:46.083Z,97814.22
2019-05-30T22:22:14.280Z,97809.23
2019-05-30T22:24:42.198Z,97797.00
2019-05-30T22:27:11.665Z,97794.06
2019-05-30T22:29:40.580Z,97792.45
2019-05-30T22:32:09.295Z,97798.91
2019-05-30T22:34:38.063Z,97797.49
2019-05-30T22:37:06.783Z,97789.02
2019-05-30T22:39:35.378Z,97783.58
2019-05-30T22:42:04.172Z,97784.88
2019-05-30T22:44:32.872Z,97776.94
2019-05-30T22:47:01.496Z,97785.34
2019-05-30T22:49:30.110Z,97779.83
2019-05-30T22:51:58.895Z,97776.00
2019-05-30T22:54:27.515Z,97778.66
2019-05-30T22:56:56.199Z,97781.59
2019-05-30T22:59:27.235Z,97782.73
2019-05-30T23:01:57.196Z,97790.16
2019-05-30T23:04:26.155Z,97780.55
2019-05-30T23:06:54.798Z,97784.94
2019-05-30T23:09:23.552Z,97787.97
2019-05-30T23:11:52.268Z,97786.61
2019-05-30T23:14:20.887Z,97790.94
2019-05-30T23:16:50.228Z,97784.39
2019-05-30T23:19:19.250Z,97788.16
2019-05-30T23:21:48.719Z,97782.37
2019-05-30T23:24:17.613Z,97794.61
2019-05-30T23:26:47.350Z,97788.06
2019-05-30T23:29:16.235Z,97789.42
2019-05-30T23:31:44.868Z,97792.14
2019-05-30T23:34:13.459Z,97782.37
2019-05-30T23:36:42.111Z,97788.30
2019-05-30T23:39:11.369Z,97781.51
2019-05-30T23:41:40.172Z,97782.55
2019-05-30T23:44:11.418Z,97778.16
2019-05-30T23:46:38.311Z,97785.20
2019-05-30T23:49:06.925Z,97772.97
2019-05-30T23:51:35.537Z,97778.31
2019-05-30T23:54:04.141Z,97771.85
2019-05-30T23:56:32.862Z,97774.78
2019-05-30T23:59:01.647Z,97773.05
